Airfield :
LOGIN :

Register | Disclaimer

   EN    FR    IT 

 










Legend :    VFR   Marginal VFR   IFR   Intensive IFR   Very Intensive IFR
Visi :
Ceiling :
>= 8 km
>= 3000ft
5 to 8 km
1000 to 3000 ft
1500m to 5 km
500 to 1000 ft
800 to 1500m
200 to 500 ft
< 800m
< 200 ft
Symbols :   Thunderstorms  Fog  Heavy snow  Heavy precipitations  Wind > 20 kt
SIGMETs :     Misc.  Thunderstorms  Icing  Turbulence  Mountain Waves  Volcanic Ashes






- Airport Elevation : 242 ft
- IATA code : DUB


EIDW - Dublin

CURRENT METAR :
  • 102200Z 25015G26KT 210V270 9999 FEW017 05/02 Q1001 NOSIG

EXPIRED METARs :
  • 102130Z 24013G24KT 200V280 9999 FEW016 SCT040 05/02 Q1001 NOSIG
  • 102100Z 24011KT 190V280 9999 FEW016 SCT040 04/02 Q1001 NOSIG
  • 102030Z 24010KT 200V280 9999 FEW016 SCT040 04/02 Q1000 NOSIG
  • 102000Z 25012KT 210V270 9999 FEW016 SCT040 05/02 Q1000 NOSIG
  • 101930Z 24012KT 200V290 9999 FEW016 SCT040 05/02 Q1000 NOSIG

TAF TAF EIDW
Valid from the 10 at 18:00 until the 11 at 18:00 UTC


101700Z 1018/1118 25017KT 9999 FEW012 BKN025
TEMPO 1018/1020 25020G32KT 5000 -SHRA SCT018CB
TEMPO 1020/1108 24020G32KT
TEMPO 1108/1118 26018G28KT
PROB30
TEMPO 1108/1111 -SHRA BKN010



MET'MAP, your aeronautical weather chart ! - Copyright ORBIFLY December 2007 - Disclaimer

ORBIFLY MET'MAP TEAM :

Programming & Development : Alexandra Zaïnal
Concept & original design : Baudouin d'Aumeries
Assistance for programming : Marc-Olivier Méhu
Technical & hardware support : Manuel Goepfert

Contact : metmap@orbifly.com




SOURCES & CREDITS :

   NOAA